Time;durP1;ratioP1;P1;durP2;ratioP2;P2;SDS_P1;SDS_P2;PMS_P1;PMS_P2;Temp;Humidity;BMP_temperature;BMP_pressure;BME280_temperature;BME280_humidity;BME280_pressure;Samples;Min_cycle;Max_cycle;Signal;HPM_P1;HPM_P2
2021/04/14 00:00:27;;;;;;;5.47;3.08;;;;;;;;;;5051195;28;20048;-81
2021/04/14 00:02:54;;;;;;;7.70;2.50;;;;;;;;;;5047133;28;20063;-81
2021/04/14 00:05:22;;;;;;;5.30;2.22;;;;;;;;;;5019946;28;20125;-81
2021/04/14 00:07:48;;;;;;;6.53;2.60;;;;;;;;;;5042736;28;20048;-81
2021/04/14 00:10:15;;;;;;;5.22;2.30;;;;;;;;;;5042948;28;20128;-81
2021/04/14 00:12:41;;;;;;;6.53;2.78;;;;;;;;;;5048726;28;20029;-81
2021/04/14 00:15:11;;;;;;;6.07;3.13;;;;;;;;;;5055276;28;20048;-81
2021/04/14 00:17:37;;;;;;;10.45;3.30;;;;;;;;;;5055497;28;20081;-81
2021/04/14 00:20:04;;;;;;;6.43;3.28;;;;;;;;;;5059508;28;20043;-81
2021/04/14 00:22:30;;;;;;;10.25;3.67;;;;;;;;;;5055723;28;20041;-81
2021/04/14 00:24:57;;;;;;;7.65;4.20;;;;;;;;;;5048135;28;20039;-81
2021/04/14 00:27:23;;;;;;;6.10;3.08;;;;;;;;;;5047462;28;20116;-81
2021/04/14 00:29:49;;;;;;;8.73;3.30;;;;;;;;;;5043290;28;20086;-81
2021/04/14 00:32:16;;;;;;;11.88;3.38;;;;;;;;;;5047745;28;20052;-81
2021/04/14 00:34:42;;;;;;;6.78;3.17;;;;;;;;;;5054759;28;20072;-81
2021/04/14 00:37:08;;;;;;;7.35;3.80;;;;;;;;;;5062593;28;20036;-81
2021/04/14 00:39:34;;;;;;;9.10;3.90;;;;;;;;;;5055492;28;20041;-81
2021/04/14 00:42:01;;;;;;;8.23;4.03;;;;;;;;;;5065362;28;20102;-81
2021/04/14 00:44:27;;;;;;;7.57;3.95;;;;;;;;;;5057650;28;20146;-81
2021/04/14 00:46:53;;;;;;;7.38;3.92;;;;;;;;;;5056032;28;20052;-81
2021/04/14 00:49:19;;;;;;;8.70;3.85;;;;;;;;;;5059696;28;20048;-81
2021/04/14 00:51:47;;;;;;;8.15;3.78;;;;;;;;;;5057457;28;20036;-81
2021/04/14 00:54:13;;;;;;;6.50;3.83;;;;;;;;;;5062918;28;20040;-81
2021/04/14 00:56:40;;;;;;;8.38;3.90;;;;;;;;;;5065078;28;20037;-81
2021/04/14 00:59:06;;;;;;;10.20;3.78;;;;;;;;;;5060311;28;20131;-81
2021/04/14 01:01:33;;;;;;;7.82;3.53;;;;;;;;;;5059774;28;20128;-81
2021/04/14 01:03:59;;;;;;;7.32;3.60;;;;;;;;;;5055855;28;20040;-81
2021/04/14 01:06:27;;;;;;;6.15;3.28;;;;;;;;;;5054444;28;20048;-81
2021/04/14 01:08:54;;;;;;;6.80;3.20;;;;;;;;;;5057574;28;20036;-81
2021/04/14 01:11:21;;;;;;;6.50;3.45;;;;;;;;;;5058211;28;20036;-81
2021/04/14 01:13:48;;;;;;;5.82;3.22;;;;;;;;;;5053225;28;20353;-81
2021/04/14 01:16:14;;;;;;;11.55;3.20;;;;;;;;;;5055027;28;20504;-81
2021/04/14 01:18:41;;;;;;;7.85;3.03;;;;;;;;;;5058044;28;20045;-81
2021/04/14 01:21:09;;;;;;;9.65;3.40;;;;;;;;;;5066279;28;20048;-81
2021/04/14 01:23:36;;;;;;;5.07;2.53;;;;;;;;;;5066119;28;20041;-81
2021/04/14 01:26:02;;;;;;;9.02;3.70;;;;;;;;;;5065834;28;20071;-81
2021/04/14 01:28:30;;;;;;;7.03;3.13;;;;;;;;;;5061053;28;20376;-81
2021/04/14 01:30:57;;;;;;;6.88;2.88;;;;;;;;;;5063288;28;20049;-81
2021/04/14 01:33:24;;;;;;;6.82;3.15;;;;;;;;;;5063378;28;20166;-81
2021/04/14 01:35:50;;;;;;;9.68;4.28;;;;;;;;;;5058556;28;20041;-81
2021/04/14 01:38:17;;;;;;;6.25;3.80;;;;;;;;;;5062579;28;20052;-81
2021/04/14 01:40:43;;;;;;;8.93;3.75;;;;;;;;;;5058648;28;20147;-81
2021/04/14 01:43:09;;;;;;;6.95;4.18;;;;;;;;;;5054918;28;20451;-81
2021/04/14 01:45:38;;;;;;;9.35;4.45;;;;;;;;;;5068936;28;20465;-81
2021/04/14 01:48:05;;;;;;;10.45;5.47;;;;;;;;;;5062520;28;20036;-81
2021/04/14 01:50:32;;;;;;;11.20;5.28;;;;;;;;;;5063826;28;20040;-81
2021/04/14 01:52:58;;;;;;;12.80;5.05;;;;;;;;;;5065722;28;20044;-81
2021/04/14 01:55:25;;;;;;;13.73;7.05;;;;;;;;;;5059143;28;20166;-81
2021/04/14 01:57:53;;;;;;;9.45;5.55;;;;;;;;;;5060254;28;20052;-81
2021/04/14 02:00:22;;;;;;;13.20;5.93;;;;;;;;;;5058454;28;20049;-81
2021/04/14 02:02:49;;;;;;;10.77;6.57;;;;;;;;;;5059785;28;20043;-81
2021/04/14 02:05:16;;;;;;;14.80;5.93;;;;;;;;;;5067706;28;20068;-81
2021/04/14 02:07:42;;;;;;;10.60;5.25;;;;;;;;;;5069797;28;20042;-81
2021/04/14 02:10:10;;;;;;;9.25;5.28;;;;;;;;;;5064635;28;20064;-81
2021/04/14 02:12:37;;;;;;;8.00;5.13;;;;;;;;;;5066666;28;20450;-81
2021/04/14 02:15:05;;;;;;;9.68;4.75;;;;;;;;;;5062419;28;20078;-81
2021/04/14 02:17:32;;;;;;;10.48;3.90;;;;;;;;;;5058374;28;20059;-81
2021/04/14 02:19:58;;;;;;;10.73;4.13;;;;;;;;;;5061744;28;20377;-81
2021/04/14 02:22:24;;;;;;;7.70;3.80;;;;;;;;;;5056629;28;20495;-81
2021/04/14 02:25:12;;;;;;;9.23;3.30;;;;;;;;;;5067458;28;20461;-81
2021/04/14 02:27:38;;;;;;;6.65;2.63;;;;;;;;;;5062138;28;20106;-81
2021/04/14 02:30:06;;;;;;;7.35;3.35;;;;;;;;;;5053087;28;20041;-81
2021/04/14 02:32:32;;;;;;;10.40;3.10;;;;;;;;;;5059746;28;20056;-81
2021/04/14 02:34:59;;;;;;;6.97;2.90;;;;;;;;;;5063878;28;20037;-81
2021/04/14 02:37:25;;;;;;;9.82;2.92;;;;;;;;;;5064459;28;20410;-81
2021/04/14 02:40:11;;;;;;;5.45;2.42;;;;;;;;;;5064171;28;20484;-81
2021/04/14 02:42:40;;;;;;;7.82;2.92;;;;;;;;;;5064548;28;20508;-81
2021/04/14 02:45:28;;;;;;;6.55;1.90;;;;;;;;;;5063423;28;20519;-81
2021/04/14 02:47:55;;;;;;;6.72;2.10;;;;;;;;;;5061628;28;20823;-81
2021/04/14 02:50:21;;;;;;;6.93;2.28;;;;;;;;;;5066391;28;20044;-81
2021/04/14 02:53:08;;;;;;;8.88;2.83;;;;;;;;;;5069743;28;20052;-81
2021/04/14 02:55:35;;;;;;;7.43;2.50;;;;;;;;;;5069835;28;20044;-81
2021/04/14 02:58:12;;;;;;;8.25;2.10;;;;;;;;;;5068536;28;20040;-81
2021/04/14 03:00:39;;;;;;;5.45;1.95;;;;;;;;;;5071517;28;20447;-81
2021/04/14 03:03:05;;;;;;;7.65;1.90;;;;;;;;;;5067134;28;20052;-81
2021/04/14 03:05:32;;;;;;;4.28;2.05;;;;;;;;;;5063271;28;20552;-81
2021/04/14 03:07:59;;;;;;;5.78;2.33;;;;;;;;;;5056625;28;20037;-81
2021/04/14 03:10:25;;;;;;;8.05;2.90;;;;;;;;;;5068918;28;20044;-81
2021/04/14 03:13:12;;;;;;;8.82;2.40;;;;;;;;;;5064779;28;20052;-81
2021/04/14 03:15:40;;;;;;;4.32;1.88;;;;;;;;;;5073388;28;20071;-81
2021/04/14 03:18:08;;;;;;;5.78;1.80;;;;;;;;;;5073346;28;20055;-81
2021/04/14 03:20:35;;;;;;;5.63;2.08;;;;;;;;;;5073315;28;20154;-81
2021/04/14 03:23:01;;;;;;;4.68;2.17;;;;;;;;;;5072063;28;20043;-81
2021/04/14 03:25:47;;;;;;;4.13;2.30;;;;;;;;;;5065973;28;20119;-81
2021/04/14 03:28:14;;;;;;;6.55;2.00;;;;;;;;;;5061924;28;20471;-81
2021/04/14 03:30:41;;;;;;;11.38;2.30;;;;;;;;;;5064601;28;20113;-81
2021/04/14 03:33:07;;;;;;;9.25;2.40;;;;;;;;;;5067175;28;20395;-81
2021/04/14 03:35:33;;;;;;;5.32;2.42;;;;;;;;;;5056863;28;20179;-81
2021/04/14 03:38:00;;;;;;;7.28;2.88;;;;;;;;;;5057382;28;20037;-81
2021/04/14 03:40:46;;;;;;;4.85;2.47;;;;;;;;;;5053154;28;20457;-81
2021/04/14 03:43:13;;;;;;;5.45;2.13;;;;;;;;;;5059497;28;20045;-81
2021/04/14 03:45:41;;;;;;;5.75;2.75;;;;;;;;;;5063122;28;20488;-81
2021/04/14 03:48:08;;;;;;;7.82;2.40;;;;;;;;;;5063074;28;20116;-81
2021/04/14 03:50:35;;;;;;;4.95;2.20;;;;;;;;;;5066229;28;20491;-81
2021/04/14 03:53:26;;;;;;;9.00;2.30;;;;;;;;;;5064718;28;20068;-81
2021/04/14 03:56:03;;;;;;;4.80;2.42;;;;;;;;;;5055996;28;20175;-80
2021/04/14 03:58:31;;;;;;;4.88;2.28;;;;;;;;;;5066095;28;20384;-81
2021/04/14 04:00:59;;;;;;;7.25;2.55;;;;;;;;;;5055082;28;20131;-81
2021/04/14 04:03:26;;;;;;;7.05;2.65;;;;;;;;;;5062495;28;20044;-81
2021/04/14 04:05:53;;;;;;;5.65;2.47;;;;;;;;;;5060547;28;20049;-81
2021/04/14 04:08:39;;;;;;;5.82;2.70;;;;;;;;;;5049207;28;20041;-81
2021/04/14 04:11:06;;;;;;;6.20;2.80;;;;;;;;;;5058108;28;20361;-81
2021/04/14 04:13:33;;;;;;;5.35;2.38;;;;;;;;;;5063993;28;20120;-81
2021/04/14 04:15:59;;;;;;;3.95;1.75;;;;;;;;;;5065727;28;20044;-81
2021/04/14 04:18:26;;;;;;;8.45;2.25;;;;;;;;;;5064651;28;20491;-81
2021/04/14 04:20:53;;;;;;;6.10;2.30;;;;;;;;;;5063335;28;20056;-81
2021/04/14 04:23:19;;;;;;;7.75;2.30;;;;;;;;;;5059374;28;20231;-81
2021/04/14 04:25:45;;;;;;;6.70;2.22;;;;;;;;;;5061224;28;20085;-81
2021/04/14 04:28:11;;;;;;;8.02;2.33;;;;;;;;;;5062686;28;20071;-81
2021/04/14 04:30:38;;;;;;;9.52;2.22;;;;;;;;;;5060695;28;20052;-81
2021/04/14 04:33:05;;;;;;;6.68;2.17;;;;;;;;;;5062117;28;20046;-81
2021/04/14 04:35:51;;;;;;;6.47;2.10;;;;;;;;;;5061364;28;20756;-81
2021/04/14 04:38:17;;;;;;;5.18;2.15;;;;;;;;;;5057503;28;20032;-81
2021/04/14 04:40:44;;;;;;;6.88;2.40;;;;;;;;;;5034215;28;611880;-81
2021/04/14 04:43:23;;;;;;;4.78;2.45;;;;;;;;;;5064941;28;20171;-81
2021/04/14 04:45:51;;;;;;;5.80;1.95;;;;;;;;;;5062597;28;20041;-81
2021/04/14 04:48:18;;;;;;;4.75;1.95;;;;;;;;;;5065891;28;20035;-81
2021/04/14 04:50:44;;;;;;;7.32;2.13;;;;;;;;;;5059354;28;20049;-76
2021/04/14 04:53:14;;;;;;;5.13;2.08;;;;;;;;;;5059178;28;20044;-76
2021/04/14 04:55:43;;;;;;;6.88;2.65;;;;;;;;;;5067102;28;20049;-76
2021/04/14 04:58:09;;;;;;;7.95;2.75;;;;;;;;;;5060485;28;20070;-80
2021/04/14 05:00:36;;;;;;;8.65;2.85;;;;;;;;;;5060159;28;20051;-79
2021/04/14 05:03:04;;;;;;;7.82;2.70;;;;;;;;;;5063735;28;20101;-80
2021/04/14 05:05:31;;;;;;;5.55;2.67;;;;;;;;;;5062432;28;20102;-82
2021/04/14 05:07:57;;;;;;;6.05;3.05;;;;;;;;;;5066688;28;20172;-81
2021/04/14 05:10:44;;;;;;;6.07;2.50;;;;;;;;;;5068918;28;20067;-80
2021/04/14 05:13:30;;;;;;;6.00;2.88;;;;;;;;;;5062355;28;20047;-81
2021/04/14 05:15:57;;;;;;;6.93;2.95;;;;;;;;;;5066983;28;20040;-80
2021/04/14 05:18:24;;;;;;;6.63;3.33;;;;;;;;;;5066514;28;20036;-81
2021/04/14 05:20:50;;;;;;;10.02;3.05;;;;;;;;;;5058735;28;20075;-75
2021/04/14 05:23:16;;;;;;;7.88;3.03;;;;;;;;;;5062745;28;20033;-79
2021/04/14 05:25:45;;;;;;;9.23;3.03;;;;;;;;;;5059405;28;20479;-80
2021/04/14 05:28:13;;;;;;;8.50;3.33;;;;;;;;;;5061197;28;20037;-79
2021/04/14 05:30:40;;;;;;;8.18;3.53;;;;;;;;;;5060140;28;20101;-79
2021/04/14 05:33:08;;;;;;;8.70;3.67;;;;;;;;;;5060721;28;20033;-79
2021/04/14 05:35:40;;;;;;;7.78;3.80;;;;;;;;;;5064812;28;20052;-79
2021/04/14 05:38:06;;;;;;;9.38;3.17;;;;;;;;;;5088393;28;20097;-80
2021/04/14 05:40:33;;;;;;;7.05;3.38;;;;;;;;;;5090138;28;20093;-80
2021/04/14 05:43:21;;;;;;;6.40;3.17;;;;;;;;;;5075815;28;20050;-80
2021/04/14 05:45:47;;;;;;;11.07;2.90;;;;;;;;;;5091930;28;20048;-80
2021/04/14 05:48:14;;;;;;;8.18;3.60;;;;;;;;;;5090553;28;20122;-79
2021/04/14 05:50:41;;;;;;;9.10;3.88;;;;;;;;;;5082065;28;20068;-80
2021/04/14 05:53:08;;;;;;;8.45;3.60;;;;;;;;;;5085240;28;20039;-79
2021/04/14 05:55:34;;;;;;;6.90;3.47;;;;;;;;;;5089817;28;20128;-80
2021/04/14 05:58:00;;;;;;;9.02;3.53;;;;;;;;;;5090797;28;20093;-80
2021/04/14 06:00:27;;;;;;;9.00;3.53;;;;;;;;;;5090028;28;20106;-80
2021/04/14 06:02:53;;;;;;;6.93;3.55;;;;;;;;;;5089832;28;20104;-80
2021/04/14 06:05:21;;;;;;;9.57;3.00;;;;;;;;;;5090067;28;20146;-80
2021/04/14 06:07:47;;;;;;;8.52;3.05;;;;;;;;;;5088950;28;20395;-80
2021/04/14 06:10:15;;;;;;;9.00;4.15;;;;;;;;;;5088502;28;20093;-80
2021/04/14 06:12:45;;;;;;;8.55;3.72;;;;;;;;;;5090554;28;20110;-80
2021/04/14 06:15:13;;;;;;;9.10;3.65;;;;;;;;;;5089642;28;20513;-80
2021/04/14 06:17:40;;;;;;;9.18;3.40;;;;;;;;;;5089582;28;20052;-80
2021/04/14 06:20:07;;;;;;;5.70;3.53;;;;;;;;;;5089002;28;20051;-80
2021/04/14 06:22:35;;;;;;;5.75;3.28;;;;;;;;;;5089478;28;20233;-80
2021/04/14 06:25:01;;;;;;;8.82;3.67;;;;;;;;;;5089900;28;20118;-80
2021/04/14 06:27:33;;;;;;;7.20;3.63;;;;;;;;;;5089415;28;20036;-79
2021/04/14 06:29:59;;;;;;;12.25;3.40;;;;;;;;;;5089464;28;20141;-80
2021/04/14 06:32:26;;;;;;;7.15;3.95;;;;;;;;;;5090084;28;20075;-80
2021/04/14 06:34:53;;;;;;;9.05;3.92;;;;;;;;;;5090120;28;20398;-79
2021/04/14 06:37:19;;;;;;;11.32;4.40;;;;;;;;;;5089572;28;20044;-80
2021/04/14 06:39:55;;;;;;;11.68;4.00;;;;;;;;;;5090340;28;20480;-79
2021/04/14 06:42:41;;;;;;;7.15;3.72;;;;;;;;;;5090450;28;20430;-79
2021/04/14 06:45:07;;;;;;;6.40;3.97;;;;;;;;;;5089565;28;20085;-80
2021/04/14 06:47:52;;;;;;;9.75;3.92;;;;;;;;;;5090396;28;20171;-80
2021/04/14 06:50:20;;;;;;;8.30;4.22;;;;;;;;;;5090364;28;20100;-80
2021/04/14 06:52:46;;;;;;;10.38;3.00;;;;;;;;;;5089757;28;20052;-80
2021/04/14 06:55:26;;;;;;;11.75;2.55;;;;;;;;;;5089941;28;20044;-80
2021/04/14 06:57:56;;;;;;;10.50;2.40;;;;;;;;;;5087988;28;20761;-80
2021/04/14 07:00:30;;;;;;;8.23;2.30;;;;;;;;;;5090510;28;20128;-80
2021/04/14 07:02:59;;;;;;;11.95;3.22;;;;;;;;;;5090333;28;20040;-80
2021/04/14 07:05:29;;;;;;;17.13;3.83;;;;;;;;;;5088202;28;20089;-80
2021/04/14 07:07:57;;;;;;;5.00;2.30;;;;;;;;;;5090463;28;20082;-80
2021/04/14 07:10:43;;;;;;;10.90;2.13;;;;;;;;;;5089024;28;20120;-80
2021/04/14 07:13:11;;;;;;;9.20;2.38;;;;;;;;;;5089256;28;20065;-80
2021/04/14 07:15:37;;;;;;;8.18;2.53;;;;;;;;;;5090091;28;20439;-80
2021/04/14 07:18:20;;;;;;;9.90;2.50;;;;;;;;;;5088829;28;20075;-80
2021/04/14 07:20:51;;;;;;;8.38;2.13;;;;;;;;;;5089293;28;20044;-80
2021/04/14 07:23:27;;;;;;;12.45;1.65;;;;;;;;;;5092927;28;20064;-79
2021/04/14 07:25:53;;;;;;;12.60;2.25;;;;;;;;;;5093863;28;20120;-86
2021/04/14 07:28:35;;;;;;;10.52;1.80;;;;;;;;;;5093013;28;20040;-78
2021/04/14 07:31:05;;;;;;;10.38;1.75;;;;;;;;;;5093423;28;20073;-79
2021/04/14 07:33:42;;;;;;;7.45;2.53;;;;;;;;;;5092734;28;20071;-78
2021/04/14 07:36:15;;;;;;;5.82;1.50;;;;;;;;;;5092163;28;20062;-78
2021/04/14 07:38:47;;;;;;;11.27;1.33;;;;;;;;;;5093368;28;20051;-77
2021/04/14 07:41:29;;;;;;;11.77;1.95;;;;;;;;;;5091949;28;20059;-77
2021/04/14 07:43:58;;;;;;;7.72;1.75;;;;;;;;;;5093255;28;20118;-77
2021/04/14 07:46:25;;;;;;;9.65;1.63;;;;;;;;;;5093206;28;20048;-77
2021/04/14 07:48:54;;;;;;;7.53;1.27;;;;;;;;;;5092483;28;20044;-77
2021/04/14 07:51:22;;;;;;;13.30;1.42;;;;;;;;;;5093150;28;20067;-77
2021/04/14 07:54:00;;;;;;;9.93;1.40;;;;;;;;;;5091788;28;20036;-77
2021/04/14 07:56:27;;;;;;;10.43;1.40;;;;;;;;;;5090871;28;20075;-77
2021/04/14 07:58:59;;;;;;;10.43;1.75;;;;;;;;;;5093096;28;20064;-77
2021/04/14 08:01:29;;;;;;;7.00;1.30;;;;;;;;;;5090804;28;20048;-77
2021/04/14 08:04:09;;;;;;;6.45;1.33;;;;;;;;;;5092685;28;20040;-77
2021/04/14 08:06:36;;;;;;;10.18;1.35;;;;;;;;;;5092718;28;20398;-77
2021/04/14 08:09:12;;;;;;;6.57;1.55;;;;;;;;;;5091776;28;20436;-77
2021/04/14 08:11:38;;;;;;;4.68;1.02;;;;;;;;;;5091382;28;20052;-77
2021/04/14 08:14:08;;;;;;;9.35;1.42;;;;;;;;;;5092659;28;20040;-77
2021/04/14 08:16:36;;;;;;;8.45;1.20;;;;;;;;;;5091928;28;20048;-77
2021/04/14 08:19:06;;;;;;;6.22;1.10;;;;;;;;;;5092377;28;20036;-77
2021/04/14 08:21:35;;;;;;;8.70;2.00;;;;;;;;;;5092663;28;20048;-77
2021/04/14 08:24:04;;;;;;;8.48;1.05;;;;;;;;;;5091944;28;20036;-77
2021/04/14 08:26:30;;;;;;;7.05;1.23;;;;;;;;;;5092621;28;20048;-77
2021/04/14 08:29:07;;;;;;;2.85;0.77;;;;;;;;;;5092116;28;20036;-77
2021/04/14 08:31:35;;;;;;;4.88;0.80;;;;;;;;;;5091715;28;20040;-77
2021/04/14 08:34:09;;;;;;;6.57;0.98;;;;;;;;;;5091122;28;20044;-77
2021/04/14 08:36:40;;;;;;;5.22;0.85;;;;;;;;;;5091288;28;20046;-77
2021/04/14 08:39:14;;;;;;;4.45;0.77;;;;;;;;;;5092215;28;20090;-76
2021/04/14 08:41:40;;;;;;;6.35;0.65;;;;;;;;;;5091516;28;20404;-77
2021/04/14 08:44:10;;;;;;;4.30;1.33;;;;;;;;;;5091146;28;20101;-77
2021/04/14 08:46:38;;;;;;;3.53;0.77;;;;;;;;;;5091923;28;20039;-77
2021/04/14 08:49:06;;;;;;;4.30;0.90;;;;;;;;;;5092052;28;20052;-77
2021/04/14 08:51:34;;;;;;;6.57;0.70;;;;;;;;;;5090973;28;20048;-77
2021/04/14 08:54:00;;;;;;;2.70;0.77;;;;;;;;;;5091950;28;20047;-77
2021/04/14 08:56:27;;;;;;;3.90;0.73;;;;;;;;;;5091839;28;20040;-77
2021/04/14 08:58:54;;;;;;;3.92;0.70;;;;;;;;;;5091086;28;20483;-78
2021/04/14 09:01:21;;;;;;;2.17;0.75;;;;;;;;;;5091759;28;20040;-77
2021/04/14 09:03:48;;;;;;;3.55;0.88;;;;;;;;;;5091256;28;20040;-77
2021/04/14 09:06:15;;;;;;;4.82;0.70;;;;;;;;;;5091003;28;20130;-77
2021/04/14 09:08:47;;;;;;;8.85;0.90;;;;;;;;;;5089969;28;20517;-78
2021/04/14 09:11:20;;;;;;;7.50;0.73;;;;;;;;;;5091511;28;20110;-77
2021/04/14 09:13:46;;;;;;;5.70;0.95;;;;;;;;;;5089526;28;20036;-77
2021/04/14 09:16:13;;;;;;;3.25;0.75;;;;;;;;;;5090334;28;20065;-77
2021/04/14 09:18:42;;;;;;;4.35;0.93;;;;;;;;;;5090340;28;20119;-77
2021/04/14 09:21:13;;;;;;;3.08;0.88;;;;;;;;;;5089859;28;20044;-78
2021/04/14 09:23:41;;;;;;;4.95;0.73;;;;;;;;;;5091221;28;20043;-78
2021/04/14 09:26:16;;;;;;;4.65;0.70;;;;;;;;;;5090501;28;20068;-78
2021/04/14 09:28:46;;;;;;;6.95;0.82;;;;;;;;;;5091329;28;20105;-78
2021/04/14 09:31:15;;;;;;;4.90;0.98;;;;;;;;;;5090010;28;20048;-78
2021/04/14 09:33:45;;;;;;;4.13;0.80;;;;;;;;;;5090620;28;20047;-78
2021/04/14 09:36:12;;;;;;;4.57;0.77;;;;;;;;;;5091140;28;20123;-78
2021/04/14 09:38:46;;;;;;;4.07;0.60;;;;;;;;;;5091629;28;20036;-78
2021/04/14 09:41:15;;;;;;;6.72;0.77;;;;;;;;;;5089766;28;20048;-78
2021/04/14 09:43:43;;;;;;;9.02;1.10;;;;;;;;;;5091068;28;20059;-78
2021/04/14 09:46:11;;;;;;;4.13;0.85;;;;;;;;;;5090749;28;20130;-78
2021/04/14 09:48:40;;;;;;;3.67;1.00;;;;;;;;;;5090379;28;20036;-78
2021/04/14 09:51:20;;;;;;;3.92;1.10;;;;;;;;;;5091264;28;20052;-78
2021/04/14 09:53:48;;;;;;;8.38;1.20;;;;;;;;;;5090122;28;20475;-78
2021/04/14 09:56:19;;;;;;;4.65;1.02;;;;;;;;;;5090966;28;20044;-78
2021/04/14 09:58:48;;;;;;;5.55;1.23;;;;;;;;;;5090917;28;20075;-78
2021/04/14 10:01:15;;;;;;;5.65;1.33;;;;;;;;;;5089888;28;20072;-78
2021/04/14 10:03:45;;;;;;;4.72;0.88;;;;;;;;;;5090430;28;20040;-79
2021/04/14 10:06:14;;;;;;;9.60;2.10;;;;;;;;;;5090856;28;20048;-78
2021/04/14 10:08:42;;;;;;;5.30;1.00;;;;;;;;;;5089763;28;20129;-78
2021/04/14 10:11:10;;;;;;;7.72;1.35;;;;;;;;;;5090701;28;20138;-78
2021/04/14 10:13:37;;;;;;;7.10;1.00;;;;;;;;;;5090263;28;20502;-78
2021/04/14 10:16:03;;;;;;;5.35;0.95;;;;;;;;;;5089848;28;20119;-78
2021/04/14 10:18:31;;;;;;;8.95;1.10;;;;;;;;;;5090663;28;20097;-78
2021/04/14 10:21:11;;;;;;;6.63;1.05;;;;;;;;;;5090182;28;20119;-78
2021/04/14 10:23:38;;;;;;;10.02;1.15;;;;;;;;;;5089545;28;20063;-78
2021/04/14 10:26:05;;;;;;;6.10;1.73;;;;;;;;;;5090136;28;20062;-78
2021/04/14 10:28:31;;;;;;;4.53;0.95;;;;;;;;;;5090290;28;20048;-78
2021/04/14 10:31:16;;;;;;;4.82;1.50;;;;;;;;;;5089216;28;20483;-78
2021/04/14 10:33:43;;;;;;;4.70;0.90;;;;;;;;;;5090235;28;20039;-78
2021/04/14 10:36:12;;;;;;;8.43;1.15;;;;;;;;;;5089427;28;20044;-78
2021/04/14 10:38:39;;;;;;;4.72;1.15;;;;;;;;;;5090420;28;20040;-78
2021/04/14 10:41:15;;;;;;;3.67;1.20;;;;;;;;;;5090068;28;20407;-78
2021/04/14 10:43:41;;;;;;;7.28;1.25;;;;;;;;;;5063037;28;20040;-78
2021/04/14 10:46:11;;;;;;;6.70;1.40;;;;;;;;;;5090280;28;20357;-78
2021/04/14 10:48:45;;;;;;;9.45;1.85;;;;;;;;;;5090226;28;20036;-78
2021/04/14 10:51:17;;;;;;;5.82;1.02;;;;;;;;;;5089296;28;20044;-77
2021/04/14 10:53:44;;;;;;;6.35;1.58;;;;;;;;;;5090105;28;20047;-77
2021/04/14 10:56:14;;;;;;;7.57;0.98;;;;;;;;;;5090175;28;20070;-77
2021/04/14 10:58:41;;;;;;;6.07;1.23;;;;;;;;;;5092858;28;20040;-77
2021/04/14 11:01:15;;;;;;;5.28;1.08;;;;;;;;;;5093843;28;20161;-77
2021/04/14 11:03:41;;;;;;;;;;;;;;;;;;5094178;28;20036;-77
2021/04/14 11:06:09;;;;;;;3.85;0.70;;;;;;;;;;5093145;28;19927;-78
2021/04/14 11:08:36;;;;;;;5.65;0.88;;;;;;;;;;5093703;28;20514;-77
2021/04/14 11:11:02;;;;;;;3.63;0.70;;;;;;;;;;5091935;28;20352;-78
2021/04/14 11:13:30;;;;;;;3.20;0.75;;;;;;;;;;5093576;28;20099;-77
2021/04/14 11:15:57;;;;;;;3.85;0.80;;;;;;;;;;5093586;28;20044;-78
2021/04/14 11:18:32;;;;;;;4.63;0.90;;;;;;;;;;5092882;28;20479;-78
2021/04/14 11:21:08;;;;;;;5.53;0.93;;;;;;;;;;5093646;28;20073;-78
2021/04/14 11:23:39;;;;;;;3.63;0.73;;;;;;;;;;5092217;28;20042;-78
2021/04/14 11:26:07;;;;;;;5.13;0.90;;;;;;;;;;5064648;28;20112;-78
2021/04/14 11:28:45;;;;;;;4.28;1.10;;;;;;;;;;5092181;28;20040;-78
2021/04/14 11:31:12;;;;;;;7.60;1.45;;;;;;;;;;5092114;28;20134;-78
2021/04/14 11:33:40;;;;;;;7.55;1.17;;;;;;;;;;5092578;28;20119;-78
2021/04/14 11:36:19;;;;;;;5.53;1.40;;;;;;;;;;5092081;28;20161;-78
2021/04/14 11:38:56;;;;;;;6.80;1.23;;;;;;;;;;5093118;28;20345;-78
2021/04/14 11:41:31;;;;;;;5.35;0.90;;;;;;;;;;5091873;28;20535;-78
2021/04/14 11:43:58;;;;;;;10.05;1.70;;;;;;;;;;5093305;28;20087;-78
2021/04/14 11:46:27;;;;;;;4.18;1.10;;;;;;;;;;5092315;28;20498;-78
2021/04/14 11:48:56;;;;;;;6.03;0.93;;;;;;;;;;5092947;28;20375;-78
2021/04/14 11:51:29;;;;;;;4.78;1.40;;;;;;;;;;5092835;28;20119;-78
2021/04/14 11:54:01;;;;;;;4.63;1.00;;;;;;;;;;5091196;28;20088;-78
2021/04/14 11:56:33;;;;;;;5.70;1.00;;;;;;;;;;5092892;28;20498;-78
2021/04/14 11:58:59;;;;;;;7.07;1.20;;;;;;;;;;5066599;28;20067;-78
2021/04/14 12:01:27;;;;;;;8.70;1.40;;;;;;;;;;5091982;28;20059;-78
2021/04/14 12:03:53;;;;;;;4.82;1.15;;;;;;;;;;5091089;28;20036;-78
2021/04/14 12:06:20;;;;;;;5.75;1.00;;;;;;;;;;5091328;28;20040;-78
2021/04/14 12:08:47;;;;;;;7.22;1.00;;;;;;;;;;5091879;28;20047;-78
2021/04/14 12:11:21;;;;;;;5.30;0.90;;;;;;;;;;5092737;28;20044;-78
2021/04/14 12:13:48;;;;;;;7.22;1.25;;;;;;;;;;5092682;28;20127;-84
2021/04/14 12:16:15;;;;;;;6.45;1.50;;;;;;;;;;5090615;28;20051;-84
2021/04/14 12:18:41;;;;;;;6.65;1.15;;;;;;;;;;5092203;28;20040;-78
2021/04/14 12:21:08;;;;;;;2.50;0.70;;;;;;;;;;5091195;28;20048;-78
2021/04/14 12:23:35;;;;;;;4.47;0.77;;;;;;;;;;5091678;28;20082;-79
2021/04/14 12:26:02;;;;;;;5.10;1.40;;;;;;;;;;5092521;28;20048;-79
2021/04/14 12:28:28;;;;;;;5.50;1.08;;;;;;;;;;5091600;28;20040;-79
2021/04/14 12:30:55;;;;;;;3.38;0.80;;;;;;;;;;5092348;28;20048;-78
2021/04/14 12:33:21;;;;;;;2.85;0.90;;;;;;;;;;5090890;28;20040;-78
2021/04/14 12:35:48;;;;;;;3.38;0.98;;;;;;;;;;5091909;28;20044;-78
2021/04/14 12:38:15;;;;;;;4.50;1.25;;;;;;;;;;5092059;28;20550;-79
2021/04/14 12:40:41;;;;;;;3.50;0.95;;;;;;;;;;5092133;28;20100;-78
2021/04/14 12:43:07;;;;;;;3.15;0.82;;;;;;;;;;5091339;28;20429;-79
2021/04/14 12:45:41;;;;;;;7.22;1.15;;;;;;;;;;5078976;28;20056;-78
2021/04/14 12:48:11;;;;;;;4.22;0.90;;;;;;;;;;5064212;28;20135;-77
2021/04/14 12:50:37;;;;;;;3.90;0.80;;;;;;;;;;5073073;28;20045;-78
2021/04/14 12:53:04;;;;;;;5.63;0.90;;;;;;;;;;5060136;28;20082;-79
2021/04/14 12:55:37;;;;;;;7.70;1.90;;;;;;;;;;5055768;28;20124;-79
2021/04/14 12:58:04;;;;;;;5.13;1.15;;;;;;;;;;5066021;28;20040;-79
2021/04/14 13:00:31;;;;;;;6.93;0.95;;;;;;;;;;5065825;28;20493;-79
2021/04/14 13:03:01;;;;;;;5.82;1.38;;;;;;;;;;5065857;28;20059;-79
2021/04/14 13:05:33;;;;;;;3.35;0.98;;;;;;;;;;5078592;28;20043;-79
2021/04/14 13:08:02;;;;;;;5.30;1.00;;;;;;;;;;5070289;28;20040;-78
2021/04/14 13:10:36;;;;;;;5.40;0.98;;;;;;;;;;5069055;28;20441;-75
2021/04/14 13:13:02;;;;;;;5.03;1.27;;;;;;;;;;5066146;28;20048;-74
2021/04/14 13:15:47;;;;;;;5.95;1.25;;;;;;;;;;5068953;28;20118;-85
2021/04/14 13:18:13;;;;;;;2.95;0.98;;;;;;;;;;5054933;28;20048;-80
2021/04/14 13:20:41;;;;;;;7.57;1.30;;;;;;;;;;5072200;28;20062;-86
2021/04/14 13:23:09;;;;;;;5.10;0.90;;;;;;;;;;5069813;28;20096;-81
2021/04/14 13:25:37;;;;;;;2.45;0.75;;;;;;;;;;5070337;28;20037;-71
2021/04/14 13:28:08;;;;;;;6.07;1.52;;;;;;;;;;5066312;28;20417;-75
2021/04/14 13:30:38;;;;;;;7.32;1.58;;;;;;;;;;5064563;28;20040;-74
2021/04/14 13:33:16;;;;;;;6.30;0.82;;;;;;;;;;5068980;28;20484;-75
2021/04/14 13:36:00;;;;;;;3.97;0.70;;;;;;;;;;5071903;28;20048;-76
2021/04/14 13:38:28;;;;;;;4.15;0.98;;;;;;;;;;5077273;28;20035;-73
2021/04/14 13:40:57;;;;;;;4.15;0.70;;;;;;;;;;5078806;28;20158;-75
2021/04/14 13:43:28;;;;;;;6.35;1.42;;;;;;;;;;5081993;28;20043;-75
2021/04/14 13:45:58;;;;;;;5.30;0.90;;;;;;;;;;5067274;28;20036;-74
2021/04/14 13:48:35;;;;;;;3.03;0.73;;;;;;;;;;5072632;28;20110;-74
2021/04/14 13:51:06;;;;;;;4.82;1.00;;;;;;;;;;5076819;28;20071;-72
2021/04/14 13:53:35;;;;;;;3.92;0.90;;;;;;;;;;5083009;28;20084;-75
2021/04/14 13:56:05;;;;;;;3.60;0.90;;;;;;;;;;5068278;28;20059;-75
2021/04/14 13:58:39;;;;;;;5.88;1.10;;;;;;;;;;5066847;28;20399;-81
2021/04/14 14:01:08;;;;;;;5.18;1.33;;;;;;;;;;5067772;28;20568;-75
2021/04/14 14:03:34;;;;;;;6.88;0.90;;;;;;;;;;5071314;28;20147;-74
2021/04/14 14:06:04;;;;;;;7.47;1.13;;;;;;;;;;5067996;28;20044;-72
2021/04/14 14:08:31;;;;;;;6.22;0.70;;;;;;;;;;5066748;28;20060;-72
2021/04/14 14:10:59;;;;;;;4.53;0.90;;;;;;;;;;5082283;28;20040;-75
2021/04/14 14:13:38;;;;;;;4.35;0.88;;;;;;;;;;5066800;28;20455;-73
2021/04/14 14:16:13;;;;;;;5.72;1.13;;;;;;;;;;5052094;28;20331;-74
2021/04/14 14:18:41;;;;;;;4.72;0.70;;;;;;;;;;5055690;28;20044;-74
2021/04/14 14:21:12;;;;;;;4.40;0.80;;;;;;;;;;5062502;28;20052;-74
2021/04/14 14:23:42;;;;;;;5.32;1.20;;;;;;;;;;5064559;28;20041;-70
2021/04/14 14:26:09;;;;;;;5.43;0.85;;;;;;;;;;5055740;28;20079;-71
2021/04/14 14:28:35;;;;;;;5.63;0.80;;;;;;;;;;5073051;28;20064;-70
2021/04/14 14:31:03;;;;;;;9.23;2.22;;;;;;;;;;5074712;28;20070;-70
2021/04/14 14:33:34;;;;;;;4.78;0.98;;;;;;;;;;5057388;28;20041;-70
2021/04/14 14:36:04;;;;;;;4.25;1.08;;;;;;;;;;5060491;28;20067;-70
2021/04/14 14:38:34;;;;;;;3.10;0.73;;;;;;;;;;5054998;28;20109;-72
2021/04/14 14:41:00;;;;;;;3.42;0.68;;;;;;;;;;5064526;28;20072;-73
2021/04/14 14:43:30;;;;;;;4.00;0.63;;;;;;;;;;5062356;28;20059;-72
2021/04/14 14:45:59;;;;;;;6.80;0.88;;;;;;;;;;5066170;28;20052;-73
2021/04/14 14:48:28;;;;;;;5.13;0.90;;;;;;;;;;5072796;28;20115;-73
2021/04/14 14:50:55;;;;;;;5.00;1.10;;;;;;;;;;5064604;28;20048;-73
2021/04/14 14:53:22;;;;;;;6.50;0.95;;;;;;;;;;5052232;28;20998;-71